createdAt,value
2022-09-11T00:01:27.260Z,15.70
2022-09-11T00:03:57.131Z,15.69
2022-09-11T00:06:30.563Z,15.69
2022-09-11T00:09:01.068Z,15.69
2022-09-11T00:11:31.577Z,15.65
2022-09-11T00:13:58.782Z,15.63
2022-09-11T00:16:35.924Z,15.56
2022-09-11T00:19:12.664Z,15.50
2022-09-11T00:21:39.979Z,15.41
2022-09-11T00:24:08.902Z,15.38
2022-09-11T00:26:36.823Z,15.34
2022-09-11T00:29:04.230Z,15.30
2022-09-11T00:31:32.398Z,15.27
2022-09-11T00:34:00.367Z,15.28
2022-09-11T00:36:31.910Z,15.24
2022-09-11T00:39:00.134Z,15.24
2022-09-11T00:41:36.294Z,15.22
2022-09-11T00:44:12.542Z,15.17
2022-09-11T00:46:44.727Z,15.15
2022-09-11T00:49:30.697Z,15.06
2022-09-11T00:52:08.571Z,14.99
2022-09-11T00:54:43.374Z,14.96
2022-09-11T00:57:10.671Z,15.01
2022-09-11T00:59:41.746Z,14.98
2022-09-11T01:02:13.728Z,14.93
2022-09-11T01:04:40.715Z,14.89
2022-09-11T01:07:07.588Z,14.85
2022-09-11T01:09:34.505Z,14.82
2022-09-11T01:12:16.886Z,14.83
2022-09-11T01:14:54.911Z,14.85
2022-09-11T01:17:33.261Z,14.86
2022-09-11T01:20:20.974Z,14.78
2022-09-11T01:23:10.267Z,14.79
2022-09-11T01:25:55.493Z,14.71
2022-09-11T01:28:57.740Z,14.69
2022-09-11T01:31:30.824Z,14.69
2022-09-11T01:34:02.499Z,14.66
2022-09-11T01:36:35.570Z,14.60
2022-09-11T01:39:04.411Z,14.55
2022-09-11T01:41:45.534Z,14.39
2022-09-11T01:44:18.142Z,14.35
2022-09-11T01:46:50.640Z,14.37
2022-09-11T01:49:20.860Z,14.43
2022-09-11T01:51:51.574Z,14.47
2022-09-11T01:54:23.093Z,14.53
2022-09-11T01:56:57.510Z,14.54
2022-09-11T01:59:34.042Z,14.51
2022-09-11T02:02:06.943Z,14.47
2022-09-11T02:04:59.311Z,14.41
2022-09-11T02:07:36.562Z,14.36
2022-09-11T02:10:17.214Z,14.32
2022-09-11T02:12:53.162Z,14.26
2022-09-11T02:15:21.902Z,14.25
2022-09-11T02:18:02.748Z,14.25
2022-09-11T02:20:31.702Z,14.26
2022-09-11T02:22:58.941Z,14.22
2022-09-11T02:25:25.797Z,14.19
2022-09-11T02:27:56.293Z,14.18
2022-09-11T02:30:23.646Z,14.12
2022-09-11T02:32:50.637Z,14.09
2022-09-11T02:35:17.705Z,14.09
2022-09-11T02:38:15.298Z,14.06
2022-09-11T02:41:01.650Z,14.06
2022-09-11T02:44:06.824Z,14.05
2022-09-11T02:46:46.783Z,14.02
2022-09-11T02:49:40.583Z,14.00
2022-09-11T02:52:17.302Z,13.99
2022-09-11T02:54:56.718Z,13.89
2022-09-11T02:57:39.357Z,13.89
2022-09-11T03:00:08.880Z,13.89
2022-09-11T03:02:40.890Z,13.90
2022-09-11T03:05:09.390Z,13.86
2022-09-11T03:07:36.299Z,13.87
2022-09-11T03:10:03.524Z,13.86
2022-09-11T03:12:30.433Z,13.83
2022-09-11T03:14:57.687Z,13.82
2022-09-11T03:17:25.526Z,13.79
2022-09-11T03:19:52.410Z,13.75
2022-09-11T03:22:19.443Z,13.79
2022-09-11T03:24:46.797Z,13.74
2022-09-11T03:27:13.688Z,13.72
2022-09-11T03:29:41.668Z,13.71
2022-09-11T03:32:09.883Z,13.72
2022-09-11T03:34:37.768Z,13.71
2022-09-11T03:37:04.834Z,13.69
2022-09-11T03:39:32.108Z,13.64
2022-09-11T03:42:01.183Z,13.63
2022-09-11T03:44:28.390Z,13.62
2022-09-11T03:46:56.070Z,13.59
2022-09-11T03:49:22.878Z,13.57
2022-09-11T03:51:49.625Z,13.56
2022-09-11T03:54:17.702Z,13.56
2022-09-11T03:56:45.913Z,13.52
2022-09-11T03:59:13.182Z,13.51
2022-09-11T04:01:40.297Z,13.52
2022-09-11T04:04:07.152Z,13.53
2022-09-11T04:06:38.876Z,13.55
2022-09-11T04:09:06.122Z,13.53
2022-09-11T04:11:38.810Z,13.47
2022-09-11T04:14:09.271Z,13.47
2022-09-11T04:16:38.414Z,13.47
2022-09-11T04:19:05.857Z,13.45
2022-09-11T04:21:36.083Z,13.40
2022-09-11T04:24:02.892Z,13.35
2022-09-11T04:26:32.832Z,13.38
2022-09-11T04:29:07.399Z,13.37
2022-09-11T04:31:36.576Z,13.39
2022-09-11T04:34:04.549Z,13.41
2022-09-11T04:36:35.564Z,13.44
2022-09-11T04:39:02.501Z,13.43
2022-09-11T04:41:30.247Z,13.42
2022-09-11T04:44:04.834Z,13.38
2022-09-11T04:46:34.777Z,13.34
2022-09-11T04:49:04.726Z,13.33
2022-09-11T04:51:34.927Z,13.29
2022-09-11T04:54:02.578Z,13.27
2022-09-11T04:56:40.474Z,13.29
2022-09-11T04:59:20.000Z,13.29
2022-09-11T05:01:52.358Z,13.27
2022-09-11T05:04:22.853Z,13.23
2022-09-11T05:06:52.245Z,13.22
2022-09-11T05:09:19.799Z,13.23
2022-09-11T05:11:48.191Z,13.33
2022-09-11T05:14:16.197Z,13.32
2022-09-11T05:16:46.006Z,13.38
2022-09-11T05:19:14.890Z,13.44
2022-09-11T05:21:43.645Z,13.55
2022-09-11T05:24:10.666Z,13.61
2022-09-11T05:26:38.300Z,13.61
2022-09-11T05:29:10.496Z,13.62
2022-09-11T05:31:43.597Z,13.63
2022-09-11T05:34:13.234Z,13.64
2022-09-11T05:36:41.513Z,13.62
2022-09-11T05:39:10.515Z,13.66
2022-09-11T05:41:38.563Z,13.70
2022-09-11T05:44:05.538Z,13.78
2022-09-11T05:46:33.509Z,13.80
2022-09-11T05:49:02.961Z,13.81
2022-09-11T05:51:29.726Z,13.83
2022-09-11T05:53:58.679Z,13.82
2022-09-11T05:56:28.266Z,13.88
2022-09-11T05:58:59.214Z,13.93
2022-09-11T06:01:33.461Z,13.98
2022-09-11T06:04:13.566Z,14.05
2022-09-11T06:06:45.451Z,14.07
2022-09-11T06:09:12.875Z,14.10
2022-09-11T06:11:41.033Z,14.12
2022-09-11T06:14:09.115Z,14.15
2022-09-11T06:16:36.307Z,14.18
2022-09-11T06:19:10.919Z,14.22
2022-09-11T06:21:37.700Z,14.25
2022-09-11T06:24:14.920Z,14.26
2022-09-11T06:26:41.787Z,14.33
2022-09-11T06:29:10.336Z,14.42
2022-09-11T06:31:37.578Z,14.46
2022-09-11T06:34:04.808Z,14.52
2022-09-11T06:36:31.997Z,14.59
2022-09-11T06:39:03.213Z,14.67
2022-09-11T06:41:32.819Z,14.72
2022-09-11T06:44:20.991Z,14.79
2022-09-11T06:46:48.013Z,14.82
2022-09-11T06:49:14.892Z,14.92
2022-09-11T06:52:00.102Z,15.02
2022-09-11T06:54:29.074Z,15.15
2022-09-11T06:56:57.768Z,15.30
2022-09-11T06:59:25.157Z,15.42
2022-09-11T07:01:52.450Z,15.55
2022-09-11T07:04:23.432Z,15.70
2022-09-11T07:06:50.791Z,15.84
2022-09-11T07:09:17.882Z,15.97
2022-09-11T07:11:51.048Z,16.13
2022-09-11T07:14:21.549Z,16.24
2022-09-11T07:16:55.323Z,16.40
2022-09-11T07:19:25.079Z,16.53
2022-09-11T07:21:52.025Z,16.65
2022-09-11T07:24:20.587Z,16.75
2022-09-11T07:26:48.338Z,16.78
2022-09-11T07:29:27.418Z,16.85
2022-09-11T07:31:57.181Z,16.85
2022-09-11T07:34:24.134Z,16.96
2022-09-11T07:36:51.938Z,17.06
2022-09-11T07:39:20.209Z,17.18
2022-09-11T07:41:53.583Z,17.29
2022-09-11T07:44:26.083Z,17.42
2022-09-11T07:46:53.306Z,17.49
2022-09-11T07:49:20.472Z,17.60
2022-09-11T07:51:47.842Z,17.70
2022-09-11T07:54:21.973Z,17.81
2022-09-11T07:56:48.882Z,17.89
2022-09-11T07:59:18.292Z,18.00
2022-09-11T08:01:48.384Z,18.12
2022-09-11T08:04:17.408Z,18.31
2022-09-11T08:06:44.964Z,18.33
2022-09-11T08:09:20.613Z,18.46
2022-09-11T08:11:58.549Z,18.59
2022-09-11T08:14:27.356Z,18.64
2022-09-11T08:16:58.779Z,18.79
2022-09-11T08:19:28.524Z,19.02
2022-09-11T08:21:59.028Z,19.20
2022-09-11T08:24:27.483Z,19.38
2022-09-11T08:26:59.164Z,19.55
2022-09-11T08:29:27.237Z,19.56
2022-09-11T08:31:57.129Z,19.61
2022-09-11T08:34:26.335Z,19.68
2022-09-11T08:36:53.231Z,19.84
2022-09-11T08:39:20.435Z,19.97
2022-09-11T08:42:00.495Z,20.12
2022-09-11T08:44:41.907Z,20.30
2022-09-11T08:47:31.412Z,20.40
2022-09-11T08:50:04.768Z,20.63
2022-09-11T08:52:35.915Z,20.82
2022-09-11T08:55:03.194Z,21.06
2022-09-11T08:57:49.304Z,21.16
2022-09-11T09:00:32.128Z,21.34
2022-09-11T09:03:08.737Z,21.58
2022-09-11T09:06:04.495Z,21.91
2022-09-11T09:08:44.927Z,22.27
2022-09-11T09:11:40.053Z,22.57
2022-09-11T09:14:14.344Z,22.63
2022-09-11T09:17:36.633Z,22.80
2022-09-11T09:20:13.581Z,22.93
2022-09-11T09:22:57.627Z,23.01
2022-09-11T09:25:27.465Z,22.96
2022-09-11T09:28:22.017Z,22.95
2022-09-11T09:30:55.274Z,22.93
2022-09-11T09:33:35.393Z,22.77
2022-09-11T09:36:17.518Z,22.50
2022-09-11T09:38:46.601Z,22.29
2022-09-11T09:41:20.784Z,22.13
2022-09-11T09:44:19.754Z,21.86
2022-09-11T09:46:51.333Z,21.78
2022-09-11T09:49:29.885Z,21.77
2022-09-11T09:52:03.541Z,21.96
2022-09-11T09:54:36.495Z,22.19
2022-09-11T09:57:10.488Z,22.43
2022-09-11T09:59:58.758Z,22.76
2022-09-11T10:02:42.222Z,23.04
2022-09-11T10:05:25.212Z,22.84
2022-09-11T10:07:55.732Z,23.07
2022-09-11T10:10:28.444Z,23.10
2022-09-11T10:13:17.689Z,23.32
2022-09-11T10:15:48.343Z,23.50
2022-09-11T10:18:30.918Z,23.51
2022-09-11T10:21:12.623Z,23.38
2022-09-11T10:24:03.201Z,23.25
2022-09-11T10:26:46.102Z,23.15
2022-09-11T10:29:19.183Z,22.83
2022-09-11T10:31:51.524Z,22.77
2022-09-11T10:34:20.313Z,22.77
2022-09-11T10:36:55.219Z,22.63
2022-09-11T10:39:25.833Z,22.74
2022-09-11T10:41:56.613Z,22.82
2022-09-11T10:44:24.270Z,22.82
2022-09-11T10:47:13.826Z,22.83
2022-09-11T10:49:40.980Z,22.77
2022-09-11T10:52:08.041Z,23.01
2022-09-11T10:54:40.651Z,23.26
2022-09-11T10:57:16.213Z,23.30
2022-09-11T10:59:48.695Z,23.14
2022-09-11T11:02:28.663Z,22.93
2022-09-11T11:05:03.594Z,22.83
2022-09-11T11:07:54.688Z,22.89
2022-09-11T11:11:00.430Z,23.15
2022-09-11T11:13:55.666Z,23.29
2022-09-11T11:16:30.010Z,23.40
2022-09-11T11:19:34.906Z,23.44
2022-09-11T11:22:16.771Z,23.55
2022-09-11T11:24:52.062Z,23.58
2022-09-11T11:27:45.377Z,23.34
2022-09-11T11:30:21.281Z,23.09
2022-09-11T11:33:09.193Z,22.92
2022-09-11T11:36:24.283Z,22.78
2022-09-11T11:39:19.264Z,22.96
2022-09-11T11:42:07.203Z,22.94
2022-09-11T11:44:48.595Z,22.78
2022-09-11T11:47:17.617Z,22.93
2022-09-11T11:49:52.241Z,23.23
2022-09-11T11:52:31.350Z,23.82
2022-09-11T11:55:20.886Z,24.33
2022-09-11T11:57:58.553Z,24.71
2022-09-11T12:00:28.908Z,24.85
2022-09-11T12:03:02.401Z,25.00
2022-09-11T12:05:34.632Z,25.27
2022-09-11T12:08:02.133Z,25.26
2022-09-11T12:10:36.153Z,25.41
2022-09-11T12:13:07.793Z,25.13
2022-09-11T12:15:36.886Z,24.91
2022-09-11T12:18:12.313Z,25.08
2022-09-11T12:20:48.147Z,25.15
2022-09-11T12:23:30.551Z,25.07
2022-09-11T12:26:09.583Z,25.01
2022-09-11T12:28:38.001Z,24.70
2022-09-11T12:31:08.202Z,24.49
2022-09-11T12:33:41.168Z,24.59
2022-09-11T12:36:23.496Z,24.44
2022-09-11T12:38:57.846Z,24.41
2022-09-11T12:41:35.756Z,24.21
2022-09-11T12:44:04.521Z,24.11
2022-09-11T12:46:31.491Z,24.41
2022-09-11T12:49:23.373Z,24.57
2022-09-11T12:52:01.774Z,24.92
2022-09-11T12:54:39.327Z,24.69
2022-09-11T12:57:21.385Z,24.16
2022-09-11T12:59:56.018Z,24.10
2022-09-11T13:02:40.088Z,24.03
2022-09-11T13:05:24.610Z,24.19
2022-09-11T13:07:56.454Z,24.66
2022-09-11T13:10:36.165Z,24.56
2022-09-11T13:13:36.067Z,24.58
2022-09-11T13:16:23.215Z,24.31
2022-09-11T13:18:50.242Z,24.06
2022-09-11T13:21:21.146Z,23.90
2022-09-11T13:23:51.500Z,24.05
2022-09-11T13:26:26.451Z,24.09
2022-09-11T13:28:57.197Z,24.10
2022-09-11T13:31:38.350Z,24.11
2022-09-11T13:34:13.087Z,24.16
2022-09-11T13:36:40.789Z,23.95
2022-09-11T13:39:09.620Z,23.77
2022-09-11T13:41:44.399Z,23.71
2022-09-11T13:44:35.438Z,23.57
2022-09-11T13:47:02.721Z,23.48
2022-09-11T13:49:39.837Z,23.43
2022-09-11T13:52:08.058Z,23.22
2022-09-11T13:54:41.255Z,23.18
2022-09-11T13:57:15.408Z,23.02
2022-09-11T13:59:45.170Z,22.91
2022-09-11T14:02:27.590Z,22.86
2022-09-11T14:05:04.846Z,23.03
2022-09-11T14:07:34.027Z,23.27
2022-09-11T14:10:08.240Z,23.32
2022-09-11T14:12:49.027Z,23.23
2022-09-11T14:15:27.802Z,23.22
2022-09-11T14:17:55.202Z,23.09
2022-09-11T14:20:24.525Z,22.98
2022-09-11T14:22:57.035Z,23.21
2022-09-11T14:25:24.340Z,23.51
2022-09-11T14:27:51.327Z,23.50
2022-09-11T14:30:33.553Z,23.46
2022-09-11T14:33:26.961Z,23.45
2022-09-11T14:36:07.107Z,23.26
2022-09-11T14:38:35.526Z,23.50
2022-09-11T14:41:05.689Z,23.59
2022-09-11T14:43:35.036Z,23.63
2022-09-11T14:46:03.009Z,23.57
2022-09-11T14:48:31.757Z,23.54
2022-09-11T14:51:00.646Z,23.41
2022-09-11T14:53:33.704Z,23.22
2022-09-11T14:56:02.162Z,23.39
2022-09-11T14:58:29.854Z,23.46
2022-09-11T15:00:57.380Z,23.25
2022-09-11T15:03:25.696Z,23.47
2022-09-11T15:05:58.014Z,23.42
2022-09-11T15:08:25.731Z,23.55
2022-09-11T15:10:53.708Z,23.50
2022-09-11T15:13:21.388Z,23.31
2022-09-11T15:15:49.177Z,22.99
2022-09-11T15:18:17.623Z,22.76
2022-09-11T15:20:44.504Z,22.66
2022-09-11T15:23:11.569Z,22.57
2022-09-11T15:25:38.456Z,22.60
2022-09-11T15:28:10.054Z,22.56
2022-09-11T15:30:38.422Z,22.44
2022-09-11T15:33:05.782Z,22.42
2022-09-11T15:35:33.189Z,22.42
2022-09-11T15:38:00.352Z,22.31
2022-09-11T15:40:27.433Z,22.23
2022-09-11T15:42:56.720Z,22.20
2022-09-11T15:45:23.970Z,22.15
2022-09-11T15:47:51.340Z,22.18
2022-09-11T15:50:24.394Z,22.23
2022-09-11T15:52:51.686Z,22.29
2022-09-11T15:55:18.500Z,22.36
2022-09-11T15:57:45.314Z,22.36
2022-09-11T16:00:14.693Z,22.51
2022-09-11T16:02:42.587Z,22.73
2022-09-11T16:05:09.650Z,22.96
2022-09-11T16:07:36.473Z,23.10
2022-09-11T16:10:03.473Z,23.07
2022-09-11T16:12:30.487Z,22.92
2022-09-11T16:14:57.594Z,22.64
2022-09-11T16:17:30.797Z,22.47
2022-09-11T16:19:58.480Z,22.32
2022-09-11T16:22:26.758Z,22.23
2022-09-11T16:24:54.587Z,22.16
2022-09-11T16:27:21.394Z,22.12
2022-09-11T16:32:38.264Z,22.21
2022-09-11T16:35:13.295Z,22.13
2022-09-11T16:37:40.466Z,22.03
2022-09-11T16:40:08.424Z,21.89
2022-09-11T16:42:35.379Z,21.75
2022-09-11T16:45:02.482Z,21.65
2022-09-11T16:47:30.599Z,21.59
2022-09-11T16:50:12.823Z,21.46
2022-09-11T16:52:39.829Z,21.40
2022-09-11T16:55:08.511Z,21.35
2022-09-11T16:57:35.662Z,21.32
2022-09-11T17:00:03.116Z,21.22
2022-09-11T17:02:30.100Z,21.16
2022-09-11T17:04:57.318Z,21.12
2022-09-11T17:07:24.365Z,21.08
2022-09-11T17:09:51.137Z,21.00
2022-09-11T17:12:18.228Z,20.92
2022-09-11T17:14:45.231Z,20.82
2022-09-11T17:17:12.111Z,20.66
2022-09-11T17:19:39.179Z,20.56
2022-09-11T17:22:08.427Z,20.47
2022-09-11T17:24:35.464Z,20.41
2022-09-11T17:27:02.810Z,20.35
2022-09-11T17:29:29.683Z,20.31
2022-09-11T17:32:16.661Z,20.21
2022-09-11T17:34:43.662Z,20.12
2022-09-11T17:37:10.893Z,20.03
2022-09-11T17:39:38.143Z,19.96
2022-09-11T17:42:11.029Z,19.89
2022-09-11T17:44:41.376Z,19.77
2022-09-11T17:47:08.540Z,19.65
2022-09-11T17:49:35.324Z,19.53
2022-09-11T17:52:03.923Z,19.39
2022-09-11T17:54:30.994Z,19.33
2022-09-11T17:56:58.567Z,19.29
2022-09-11T17:59:25.507Z,19.18
2022-09-11T18:01:52.432Z,19.08
2022-09-11T18:04:19.466Z,18.98
2022-09-11T18:06:46.820Z,18.93
2022-09-11T18:09:19.697Z,18.82
2022-09-11T18:11:49.823Z,18.70
2022-09-11T18:14:18.429Z,18.66
2022-09-11T18:16:48.055Z,18.60
2022-09-11T18:19:17.911Z,18.56
2022-09-11T18:21:49.826Z,18.50
2022-09-11T18:24:21.470Z,18.40
2022-09-11T18:26:51.587Z,18.32
2022-09-11T18:29:20.172Z,18.24
2022-09-11T18:31:52.183Z,18.17
2022-09-11T18:34:25.118Z,18.18
2022-09-11T18:36:52.304Z,18.07
2022-09-11T18:39:19.821Z,18.03
2022-09-11T18:41:48.491Z,18.01
2022-09-11T18:44:19.771Z,17.98
2022-09-11T18:46:47.646Z,17.95
2022-09-11T18:49:16.235Z,17.92
2022-09-11T18:51:44.792Z,17.91
2022-09-11T18:54:14.930Z,17.90
2022-09-11T18:56:42.420Z,17.91
2022-09-11T18:59:10.696Z,17.87
2022-09-11T19:01:37.697Z,17.86
2022-09-11T19:04:10.206Z,17.81
2022-09-11T19:06:40.589Z,17.77
2022-09-11T19:09:10.673Z,17.72
2022-09-11T19:11:38.271Z,17.67
2022-09-11T19:14:11.153Z,17.61
2022-09-11T19:16:39.541Z,17.57
2022-09-11T19:19:07.637Z,17.53
2022-09-11T19:21:34.744Z,17.49
2022-09-11T19:24:02.653Z,17.48
2022-09-11T19:26:32.112Z,17.48
2022-09-11T19:29:00.329Z,17.42
2022-09-11T19:31:29.721Z,17.35
2022-09-11T19:34:01.781Z,17.35
2022-09-11T19:36:35.231Z,17.35
2022-09-11T19:39:03.049Z,17.36
2022-09-11T19:41:32.918Z,17.35
2022-09-11T19:44:05.717Z,17.32
2022-09-11T19:46:34.645Z,17.25
2022-09-11T19:49:03.708Z,17.23
2022-09-11T19:51:35.715Z,17.18
2022-09-11T19:54:03.937Z,17.14
2022-09-11T19:56:33.965Z,17.08
2022-09-11T19:59:01.587Z,17.06
2022-09-11T20:01:31.003Z,17.03
2022-09-11T20:04:00.598Z,16.99
2022-09-11T20:06:32.804Z,16.99
2022-09-11T20:09:27.311Z,16.99
2022-09-11T20:11:47.659Z,16.95
2022-09-11T20:14:14.599Z,16.93
2022-09-11T20:16:41.668Z,16.90
2022-09-11T20:19:10.667Z,16.73
2022-09-11T20:21:37.970Z,16.65
2022-09-11T20:24:07.409Z,16.59
2022-09-11T20:26:35.431Z,16.52
2022-09-11T20:29:08.630Z,16.51
2022-09-11T20:31:47.005Z,16.50
2022-09-11T20:34:15.707Z,16.49
2022-09-11T20:36:42.592Z,16.49
2022-09-11T20:39:12.282Z,16.52
2022-09-11T20:41:39.366Z,16.56
2022-09-11T20:44:06.315Z,16.56
2022-09-11T20:46:33.175Z,16.53
2022-09-11T20:49:01.050Z,16.58
2022-09-11T20:51:28.089Z,16.61
2022-09-11T20:53:56.282Z,16.59
2022-09-11T20:56:24.001Z,16.54
2022-09-11T20:58:52.189Z,16.46
2022-09-11T21:01:22.287Z,16.46
2022-09-11T21:03:51.705Z,16.44
2022-09-11T21:06:24.816Z,16.46
2022-09-11T21:09:00.682Z,16.45
2022-09-11T21:11:29.592Z,16.44
2022-09-11T21:13:56.709Z,16.41
2022-09-11T21:16:23.731Z,16.39
2022-09-11T21:18:53.279Z,16.34
2022-09-11T21:21:21.437Z,16.33
2022-09-11T21:23:49.245Z,16.26
2022-09-11T21:26:17.443Z,16.18
2022-09-11T21:28:45.281Z,16.12
2022-09-11T21:31:13.378Z,16.09
2022-09-11T21:33:41.197Z,16.07
2022-09-11T21:36:08.565Z,16.06
2022-09-11T21:38:36.773Z,16.05
2022-09-11T21:41:06.266Z,16.01
2022-09-11T21:43:33.537Z,15.99
2022-09-11T21:46:00.762Z,15.97
2022-09-11T21:48:28.846Z,15.93
2022-09-11T21:51:05.207Z,15.91
2022-09-11T21:53:32.304Z,15.89
2022-09-11T21:55:59.217Z,15.86
2022-09-11T21:58:26.101Z,15.82
2022-09-11T22:00:52.930Z,15.82
2022-09-11T22:03:20.800Z,15.83
2022-09-11T22:05:49.330Z,15.82
2022-09-11T22:08:19.782Z,15.81
2022-09-11T22:10:49.571Z,15.79
2022-09-11T22:13:19.845Z,15.77
2022-09-11T22:15:50.129Z,15.78
2022-09-11T22:18:18.278Z,15.75
2022-09-11T22:21:05.682Z,15.72
2022-09-11T22:23:52.554Z,15.69
2022-09-11T22:26:21.404Z,15.68
2022-09-11T22:28:48.502Z,15.64
2022-09-11T22:31:21.023Z,15.68
2022-09-11T22:33:47.934Z,15.69
2022-09-11T22:36:21.013Z,15.70
2022-09-11T22:38:48.732Z,15.71
2022-09-11T22:41:16.207Z,15.70
2022-09-11T22:43:43.517Z,15.72
2022-09-11T22:46:10.598Z,15.72
2022-09-11T22:48:37.656Z,15.70
2022-09-11T22:51:04.974Z,15.68
2022-09-11T22:53:32.143Z,15.67
2022-09-11T22:55:59.252Z,15.68
2022-09-11T22:58:28.133Z,15.69
2022-09-11T23:00:56.101Z,15.66
2022-09-11T23:03:23.358Z,15.60
2022-09-11T23:06:15.834Z,15.58
2022-09-11T23:08:42.812Z,15.55
2022-09-11T23:11:11.223Z,15.53
2022-09-11T23:13:38.175Z,15.50
2022-09-11T23:16:16.169Z,15.49
2022-09-11T23:18:44.277Z,15.48
2022-09-11T23:21:11.736Z,15.44
2022-09-11T23:23:42.446Z,15.42
2022-09-11T23:26:14.298Z,15.39
2022-09-11T23:28:41.500Z,15.37
2022-09-11T23:31:14.261Z,15.34
2022-09-11T23:33:41.563Z,15.33
2022-09-11T23:36:10.672Z,15.32
2022-09-11T23:38:38.535Z,15.31
2022-09-11T23:41:05.842Z,15.26
2022-09-11T23:43:32.745Z,15.23
2022-09-11T23:45:59.724Z,15.18
2022-09-11T23:48:27.493Z,15.22
2022-09-11T23:50:54.576Z,15.20
2022-09-11T23:53:21.485Z,15.17
2022-09-11T23:55:49.913Z,15.13
2022-09-11T23:58:17.391Z,15.11
